LAN3030 SBSP-SBCY
Flight info
| Callsign | LAN3030 |
|---|---|
| Flight time | 1h 57m |
| Altitude | 36000 |
| Route | GERTU UL201 ROBID DCT RODAD UM775 SINIP |
| Aircraft | A320/M-SDE3FGHIRWY/LB1 |
Departure
| Time | 2026-04-10 21:01 |
|---|---|
| Airport | Congonhas–Deputado Freitas Nobre Airport (SBSP) |
Arrival
| Time | 2026-04-10 22:58 |
|---|---|
| Airport | Várzea Grande–Marechal Rondon International Airport (SBCY) |
| Time | Latitude | Longitude | Altitude | Speed | Heading |
|---|---|---|---|---|---|
| 2026-04-10 20:47 | -23.62961 | -46.65843 | 2600 ft | 0 kts | 327° |
| 2026-04-10 20:48 | -23.62965 | -46.65840 | 2600 ft | 4 kts | 327° |
| 2026-04-10 20:48 | -23.62988 | -46.65825 | 2600 ft | 4 kts | 345° |
| 2026-04-10 20:48 | -23.63005 | -46.65827 | 2600 ft | 2 kts | 57° |
| 2026-04-10 20:49 | -23.63014 | -46.65842 | 2600 ft | 0 kts | 57° |
| 2026-04-10 20:54 | -23.63008 | -46.65832 | 2600 ft | 3 kts | 57° |
| 2026-04-10 20:54 | -23.62993 | -46.65806 | 2600 ft | 5 kts | 57° |
| 2026-04-10 20:54 | -23.62969 | -46.65765 | 2600 ft | 8 kts | 57° |
| 2026-04-10 20:54 | -23.62935 | -46.65708 | 2601 ft | 10 kts | 57° |
| 2026-04-10 20:55 | -23.62900 | -46.65647 | 2601 ft | 9 kts | 57° |
| 2026-04-10 20:55 | -23.62858 | -46.65624 | 2603 ft | 7 kts | 342° |
| 2026-04-10 20:55 | -23.62811 | -46.65655 | 2603 ft | 9 kts | 328° |
| 2026-04-10 20:55 | -23.62749 | -46.65697 | 2602 ft | 11 kts | 327° |
| 2026-04-10 20:56 | -23.62675 | -46.65748 | 2602 ft | 14 kts | 328° |
| 2026-04-10 20:56 | -23.62592 | -46.65805 | 2602 ft | 13 kts | 327° |
| 2026-04-10 20:56 | -23.62512 | -46.65861 | 2602 ft | 15 kts | 328° |
| 2026-04-10 20:56 | -23.62425 | -46.65921 | 2601 ft | 16 kts | 328° |
| 2026-04-10 20:57 | -23.62331 | -46.65985 | 2600 ft | 13 kts | 327° |
| 2026-04-10 20:57 | -23.62245 | -46.66043 | 2600 ft | 16 kts | 332° |
| 2026-04-10 20:57 | -23.62166 | -46.66092 | 2599 ft | 7 kts | 328° |
| 2026-04-10 20:57 | -23.62128 | -46.66119 | 2599 ft | 5 kts | 327° |
| 2026-04-10 20:58 | -23.62126 | -46.66120 | 2599 ft | 0 kts | 327° |
| 2026-04-10 20:58 | -23.62126 | -46.66121 | 2599 ft | 1 kts | 327° |
| 2026-04-10 20:59 | -23.62108 | -46.66133 | 2592 ft | 5 kts | 330° |
| 2026-04-10 20:59 | -23.62064 | -46.66131 | 2605 ft | 8 kts | 24° |
| 2026-04-10 20:59 | -23.62039 | -46.66098 | 2602 ft | 7 kts | 78° |
| 2026-04-10 20:59 | -23.62068 | -46.66063 | 2604 ft | 0 kts | 146° |
| 2026-04-10 21:00 | -23.62070 | -46.66061 | 2605 ft | 2 kts | 146° |
| 2026-04-10 21:00 | -23.62228 | -46.65949 | 2608 ft | 70 kts | 147° |
| 2026-04-10 21:00 | -23.62889 | -46.65493 | 2619 ft | 147 kts | 148° |
| 2026-04-10 21:00 | -23.63792 | -46.64800 | 3228 ft | 160 kts | 143° |
| 2026-04-10 21:01 | -23.64782 | -46.64190 | 4041 ft | 173 kts | 167° |
| 2026-04-10 21:01 | -23.66077 | -46.64216 | 4707 ft | 197 kts | 183° |
| 2026-04-10 21:01 | -23.67519 | -46.64340 | 5111 ft | 221 kts | 182° |
| 2026-04-10 21:01 | -23.69137 | -46.64461 | 5569 ft | 245 kts | 182° |
| 2026-04-10 21:02 | -23.70914 | -46.64585 | 6218 ft | 262 kts | 183° |
| 2026-04-10 21:02 | -23.72757 | -46.64708 | 7022 ft | 271 kts | 184° |
| 2026-04-10 21:02 | -23.74608 | -46.65086 | 7333 ft | 271 kts | 206° |
| 2026-04-10 21:02 | -23.76001 | -46.66426 | 7431 ft | 271 kts | 239° |
| 2026-04-10 21:03 | -23.76640 | -46.68357 | 7456 ft | 273 kts | 253° |
| 2026-04-10 21:03 | -23.77161 | -46.70380 | 7496 ft | 273 kts | 250° |
| 2026-04-10 21:03 | -23.77924 | -46.72264 | 7496 ft | 272 kts | 240° |
| 2026-04-10 21:03 | -23.78904 | -46.74030 | 7488 ft | 272 kts | 236° |
| 2026-04-10 21:04 | -23.79994 | -46.75759 | 8000 ft | 279 kts | 234° |
| 2026-04-10 21:04 | -23.81111 | -46.77470 | 9071 ft | 277 kts | 234° |
| 2026-04-10 21:04 | -23.82223 | -46.79188 | 10063 ft | 278 kts | 236° |
| 2026-04-10 21:04 | -23.83362 | -46.80979 | 10518 ft | 298 kts | 236° |
| 2026-04-10 21:05 | -23.84569 | -46.82916 | 10918 ft | 316 kts | 237° |
| 2026-04-10 21:05 | -23.85673 | -46.85014 | 11623 ft | 322 kts | 248° |
| 2026-04-10 21:05 | -23.86209 | -46.87405 | 12365 ft | 327 kts | 264° |
| 2026-04-10 21:05 | -23.86071 | -46.89899 | 13105 ft | 333 kts | 281° |
| 2026-04-10 21:06 | -23.85251 | -46.92280 | 13842 ft | 339 kts | 296° |
| 2026-04-10 21:06 | -23.84051 | -46.94515 | 14509 ft | 342 kts | 298° |
| 2026-04-10 21:06 | -23.82835 | -46.96751 | 15202 ft | 344 kts | 298° |
| 2026-04-10 21:06 | -23.81608 | -46.99000 | 15902 ft | 345 kts | 298° |
| 2026-04-10 21:07 | -23.80382 | -47.01248 | 16599 ft | 346 kts | 298° |
| 2026-04-10 21:07 | -23.79149 | -47.03511 | 17309 ft | 347 kts | 297° |
| 2026-04-10 21:07 | -23.77913 | -47.05784 | 18011 ft | 349 kts | 297° |
| 2026-04-10 21:07 | -23.76670 | -47.08071 | 18682 ft | 350 kts | 297° |
| 2026-04-10 21:08 | -23.75281 | -47.10274 | 19269 ft | 357 kts | 307° |
| 2026-04-10 21:08 | -23.73403 | -47.12105 | 19853 ft | 369 kts | 321° |
| 2026-04-10 21:08 | -23.71078 | -47.13387 | 20427 ft | 382 kts | 335° |
| 2026-04-10 21:08 | -23.68453 | -47.14071 | 20991 ft | 392 kts | 342° |
| 2026-04-10 21:09 | -23.65771 | -47.14654 | 21539 ft | 396 kts | 342° |
| 2026-04-10 21:09 | -23.63053 | -47.15244 | 22069 ft | 400 kts | 342° |
| 2026-04-10 21:09 | -23.60306 | -47.15840 | 22585 ft | 405 kts | 342° |
| 2026-04-10 21:09 | -23.57530 | -47.16444 | 23117 ft | 409 kts | 342° |
| 2026-04-10 21:10 | -23.54730 | -47.17059 | 23634 ft | 413 kts | 342° |
| 2026-04-10 21:10 | -23.51899 | -47.17682 | 24062 ft | 417 kts | 341° |
| 2026-04-10 21:10 | -23.49008 | -47.18321 | 24505 ft | 420 kts | 341° |
| 2026-04-10 21:10 | -23.46133 | -47.18956 | 24953 ft | 422 kts | 341° |
| 2026-04-10 21:11 | -23.43244 | -47.19591 | 25408 ft | 425 kts | 341° |
| 2026-04-10 21:11 | -23.40341 | -47.20225 | 25850 ft | 427 kts | 341° |
| 2026-04-10 21:11 | -23.37417 | -47.20859 | 26285 ft | 430 kts | 341° |
| 2026-04-10 21:11 | -23.34470 | -47.21497 | 26716 ft | 432 kts | 341° |
| 2026-04-10 21:12 | -23.31516 | -47.22139 | 27151 ft | 434 kts | 341° |
| 2026-04-10 21:12 | -23.28541 | -47.22786 | 27568 ft | 437 kts | 341° |
| 2026-04-10 21:12 | -23.25553 | -47.23440 | 27979 ft | 439 kts | 341° |
| 2026-04-10 21:12 | -23.22547 | -47.24096 | 28404 ft | 442 kts | 341° |
| 2026-04-10 21:13 | -23.19526 | -47.24754 | 28838 ft | 444 kts | 341° |
| 2026-04-10 21:13 | -23.16483 | -47.25417 | 29252 ft | 447 kts | 341° |
| 2026-04-10 21:13 | -23.13431 | -47.26084 | 29666 ft | 449 kts | 341° |
| 2026-04-10 21:13 | -23.10352 | -47.26758 | 30077 ft | 452 kts | 340° |
| 2026-04-10 21:14 | -23.07254 | -47.27435 | 30446 ft | 455 kts | 340° |
| 2026-04-10 21:14 | -23.04139 | -47.28112 | 30783 ft | 458 kts | 340° |
| 2026-04-10 21:14 | -23.01005 | -47.28792 | 31114 ft | 461 kts | 340° |
| 2026-04-10 21:15 | -22.94679 | -47.30157 | 31721 ft | 467 kts | 340° |
| 2026-04-10 21:15 | -22.91481 | -47.30848 | 32038 ft | 469 kts | 340° |
| 2026-04-10 21:15 | -22.88284 | -47.31539 | 32453 ft | 469 kts | 339° |
| 2026-04-10 21:15 | -22.85085 | -47.32231 | 32873 ft | 469 kts | 339° |
| 2026-04-10 21:16 | -22.81892 | -47.32926 | 33280 ft | 469 kts | 339° |
| 2026-04-10 21:16 | -22.78687 | -47.33623 | 33667 ft | 469 kts | 338° |
| 2026-04-10 21:16 | -22.75437 | -47.34327 | 34074 ft | 470 kts | 338° |
| 2026-04-10 21:16 | -22.72232 | -47.35020 | 34411 ft | 470 kts | 338° |
| 2026-04-10 21:17 | -22.69077 | -47.35847 | 34782 ft | 459 kts | 330° |
| 2026-04-10 21:17 | -22.66198 | -47.37179 | 35149 ft | 442 kts | 320° |
| 2026-04-10 21:17 | -22.63669 | -47.38964 | 35535 ft | 427 kts | 311° |
| 2026-04-10 21:17 | -22.61334 | -47.40940 | 35915 ft | 426 kts | 311° |
| 2026-04-10 21:18 | -22.59002 | -47.42907 | 36051 ft | 425 kts | 311° |
| 2026-04-10 21:18 | -22.56676 | -47.44853 | 36085 ft | 421 kts | 311° |
| 2026-04-10 21:18 | -22.52051 | -47.48706 | 36080 ft | 419 kts | 311° |
| 2026-04-10 21:19 | -22.47441 | -47.52548 | 36080 ft | 419 kts | 311° |
| 2026-04-10 21:19 | -22.42873 | -47.56431 | 36079 ft | 412 kts | 306° |
| 2026-04-10 21:20 | -22.38918 | -47.60819 | 36079 ft | 407 kts | 303° |
| 2026-04-10 21:20 | -22.34981 | -47.65225 | 36079 ft | 408 kts | 303° |
| 2026-04-10 21:21 | -22.31035 | -47.69628 | 36078 ft | 408 kts | 304° |
| 2026-04-10 21:21 | -22.27080 | -47.74034 | 36078 ft | 408 kts | 303° |
| 2026-04-10 21:22 | -22.23131 | -47.78431 | 36086 ft | 409 kts | 304° |
| 2026-04-10 21:22 | -22.19174 | -47.82837 | 36083 ft | 409 kts | 304° |
| 2026-04-10 21:23 | -22.15209 | -47.87244 | 36084 ft | 409 kts | 304° |
| 2026-04-10 21:23 | -22.11236 | -47.91646 | 36084 ft | 409 kts | 304° |
| 2026-04-10 21:24 | -22.07237 | -47.96083 | 36080 ft | 410 kts | 304° |
| 2026-04-10 21:24 | -22.03293 | -48.00463 | 36079 ft | 410 kts | 304° |
| 2026-04-10 21:25 | -21.99293 | -48.04901 | 36076 ft | 410 kts | 304° |
| 2026-04-10 21:25 | -21.95310 | -48.09305 | 36071 ft | 410 kts | 304° |
| 2026-04-10 21:26 | -21.91326 | -48.13714 | 36073 ft | 411 kts | 304° |
| 2026-04-10 21:26 | -21.87331 | -48.18124 | 36070 ft | 411 kts | 304° |
| 2026-04-10 21:27 | -21.83339 | -48.22538 | 36069 ft | 411 kts | 304° |
| 2026-04-10 21:27 | -21.79342 | -48.26944 | 36067 ft | 412 kts | 305° |
| 2026-04-10 21:28 | -21.75342 | -48.31355 | 36063 ft | 412 kts | 305° |
| 2026-04-10 21:28 | -21.71341 | -48.35764 | 36064 ft | 412 kts | 305° |
| 2026-04-10 21:29 | -21.67333 | -48.40180 | 36065 ft | 412 kts | 305° |
| 2026-04-10 21:29 | -21.63319 | -48.44593 | 36059 ft | 413 kts | 305° |
| 2026-04-10 21:30 | -21.59299 | -48.49003 | 36058 ft | 413 kts | 305° |
| 2026-04-10 21:30 | -21.55271 | -48.53419 | 36055 ft | 414 kts | 305° |
| 2026-04-10 21:31 | -21.51895 | -48.57118 | 36056 ft | 414 kts | 306° |
| 2026-04-10 21:31 | -21.47856 | -48.61544 | 36051 ft | 415 kts | 306° |
| 2026-04-10 21:32 | -21.43815 | -48.65968 | 36057 ft | 415 kts | 306° |
| 2026-04-10 21:32 | -21.39766 | -48.70402 | 36053 ft | 416 kts | 306° |
| 2026-04-10 21:33 | -21.35714 | -48.74835 | 36056 ft | 416 kts | 306° |
| 2026-04-10 21:33 | -21.31659 | -48.79265 | 36049 ft | 417 kts | 306° |
| 2026-04-10 21:34 | -21.27592 | -48.83703 | 36050 ft | 417 kts | 306° |
| 2026-04-10 21:34 | -21.23514 | -48.88140 | 36046 ft | 418 kts | 306° |
| 2026-04-10 21:35 | -21.19411 | -48.92611 | 36045 ft | 418 kts | 306° |
| 2026-04-10 21:35 | -21.15332 | -48.97059 | 36041 ft | 419 kts | 306° |
| 2026-04-10 21:36 | -21.11247 | -49.01513 | 36043 ft | 419 kts | 307° |
| 2026-04-10 21:36 | -21.07151 | -49.05973 | 36043 ft | 420 kts | 307° |
| 2026-04-10 21:37 | -21.03057 | -49.10431 | 36046 ft | 420 kts | 307° |
| 2026-04-10 21:37 | -20.98949 | -49.14895 | 36049 ft | 421 kts | 307° |
| 2026-04-10 21:38 | -20.94829 | -49.19359 | 36052 ft | 421 kts | 307° |
| 2026-04-10 21:38 | -20.90715 | -49.23831 | 36056 ft | 422 kts | 307° |
| 2026-04-10 21:39 | -20.86599 | -49.28299 | 36057 ft | 422 kts | 307° |
| 2026-04-10 21:39 | -20.82473 | -49.32770 | 36060 ft | 422 kts | 307° |
| 2026-04-10 21:40 | -20.78336 | -49.37237 | 36058 ft | 423 kts | 307° |
| 2026-04-10 21:40 | -20.74205 | -49.41702 | 36066 ft | 422 kts | 307° |
| 2026-04-10 21:41 | -20.70076 | -49.46174 | 36059 ft | 422 kts | 307° |
| 2026-04-10 21:41 | -20.65946 | -49.50643 | 36068 ft | 423 kts | 307° |
| 2026-04-10 21:42 | -20.61816 | -49.55099 | 36066 ft | 422 kts | 307° |
| 2026-04-10 21:42 | -20.57677 | -49.59559 | 36054 ft | 422 kts | 307° |
| 2026-04-10 21:43 | -20.53519 | -49.64043 | 36048 ft | 422 kts | 307° |
| 2026-04-10 21:43 | -20.49385 | -49.68496 | 36052 ft | 422 kts | 307° |
| 2026-04-10 21:44 | -20.45247 | -49.72937 | 36050 ft | 422 kts | 307° |
| 2026-04-10 21:44 | -20.41115 | -49.77377 | 36052 ft | 422 kts | 307° |
| 2026-04-10 21:45 | -20.36985 | -49.81818 | 36050 ft | 422 kts | 307° |
| 2026-04-10 21:45 | -20.32848 | -49.86257 | 36050 ft | 422 kts | 307° |
| 2026-04-10 21:46 | -20.28710 | -49.90688 | 36045 ft | 422 kts | 307° |
| 2026-04-10 21:46 | -20.24570 | -49.95116 | 36045 ft | 422 kts | 308° |
| 2026-04-10 21:47 | -20.20434 | -49.99547 | 36039 ft | 422 kts | 308° |
| 2026-04-10 21:47 | -20.16296 | -50.03979 | 36040 ft | 422 kts | 308° |
| 2026-04-10 21:48 | -20.12154 | -50.08404 | 36041 ft | 422 kts | 308° |
| 2026-04-10 21:48 | -20.08010 | -50.12830 | 36037 ft | 422 kts | 308° |
| 2026-04-10 21:49 | -20.03864 | -50.17258 | 36034 ft | 423 kts | 308° |
| 2026-04-10 21:49 | -19.99677 | -50.21714 | 36033 ft | 423 kts | 308° |
| 2026-04-10 21:50 | -19.95711 | -50.26286 | 36032 ft | 419 kts | 304° |
| 2026-04-10 21:50 | -19.91950 | -50.31025 | 36031 ft | 419 kts | 303° |
| 2026-04-10 21:51 | -19.88187 | -50.35757 | 36033 ft | 420 kts | 304° |
| 2026-04-10 21:51 | -19.84356 | -50.40437 | 36030 ft | 420 kts | 305° |
| 2026-04-10 21:52 | -19.80496 | -50.45107 | 36030 ft | 421 kts | 305° |
| 2026-04-10 21:52 | -19.76651 | -50.49785 | 36026 ft | 421 kts | 304° |
| 2026-04-10 21:53 | -19.72802 | -50.54470 | 36026 ft | 421 kts | 305° |
| 2026-04-10 21:53 | -19.68954 | -50.59155 | 36019 ft | 421 kts | 305° |
| 2026-04-10 21:54 | -19.65099 | -50.63841 | 36016 ft | 421 kts | 305° |
| 2026-04-10 21:54 | -19.61246 | -50.68528 | 36020 ft | 422 kts | 305° |
| 2026-04-10 21:55 | -19.57391 | -50.73211 | 36013 ft | 422 kts | 305° |
| 2026-04-10 21:55 | -19.53525 | -50.77896 | 36014 ft | 422 kts | 305° |
| 2026-04-10 21:56 | -19.49653 | -50.82586 | 36009 ft | 423 kts | 305° |
| 2026-04-10 21:56 | -19.45784 | -50.87273 | 36010 ft | 423 kts | 305° |
| 2026-04-10 21:57 | -19.41881 | -50.91986 | 36017 ft | 423 kts | 306° |
| 2026-04-10 21:57 | -19.38021 | -50.96641 | 36013 ft | 423 kts | 306° |
| 2026-04-10 21:58 | -19.34114 | -51.01358 | 36012 ft | 423 kts | 306° |
| 2026-04-10 21:58 | -19.30233 | -51.06045 | 36012 ft | 423 kts | 306° |
| 2026-04-10 21:59 | -19.26353 | -51.10731 | 36013 ft | 424 kts | 306° |
| 2026-04-10 21:59 | -19.22465 | -51.15414 | 36010 ft | 424 kts | 306° |
| 2026-04-10 22:00 | -19.18575 | -51.20100 | 36013 ft | 424 kts | 306° |
| 2026-04-10 22:00 | -19.14675 | -51.24783 | 36016 ft | 424 kts | 306° |
| 2026-04-10 22:01 | -19.10782 | -51.29460 | 36011 ft | 424 kts | 306° |
| 2026-04-10 22:01 | -19.07542 | -51.33356 | 36010 ft | 424 kts | 306° |
| 2026-04-10 22:02 | -19.05592 | -51.35702 | 36011 ft | 424 kts | 306° |
| 2026-04-10 22:02 | -18.99076 | -51.43505 | 36009 ft | 424 kts | 306° |
| 2026-04-10 22:03 | -18.95170 | -51.48181 | 36014 ft | 424 kts | 306° |
| 2026-04-10 22:03 | -18.91265 | -51.52861 | 36016 ft | 425 kts | 306° |
| 2026-04-10 22:04 | -18.87983 | -51.56779 | 36016 ft | 425 kts | 307° |
| 2026-04-10 22:04 | -18.84074 | -51.61456 | 36015 ft | 425 kts | 307° |
| 2026-04-10 22:05 | -18.80162 | -51.66136 | 36015 ft | 425 kts | 307° |
| 2026-04-10 22:05 | -18.76255 | -51.70809 | 36017 ft | 425 kts | 307° |
| 2026-04-10 22:06 | -18.72337 | -51.75480 | 36017 ft | 425 kts | 307° |
| 2026-04-10 22:06 | -18.68420 | -51.80146 | 36020 ft | 425 kts | 307° |
| 2026-04-10 22:07 | -18.64502 | -51.84811 | 36024 ft | 425 kts | 307° |
| 2026-04-10 22:08 | -18.58634 | -51.91803 | 36022 ft | 424 kts | 307° |
| 2026-04-10 22:08 | -18.54718 | -51.96463 | 36022 ft | 424 kts | 307° |
| 2026-04-10 22:09 | -18.50799 | -52.01112 | 36025 ft | 425 kts | 307° |
| 2026-04-10 22:09 | -18.46877 | -52.05759 | 36024 ft | 425 kts | 307° |
| 2026-04-10 22:10 | -18.42946 | -52.10412 | 36024 ft | 425 kts | 308° |
| 2026-04-10 22:10 | -18.39000 | -52.15091 | 36021 ft | 425 kts | 308° |
| 2026-04-10 22:11 | -18.35078 | -52.19747 | 36022 ft | 425 kts | 308° |
| 2026-04-10 22:11 | -18.31155 | -52.24402 | 36018 ft | 425 kts | 308° |
| 2026-04-10 22:12 | -18.27220 | -52.29053 | 36021 ft | 426 kts | 308° |
| 2026-04-10 22:12 | -18.23274 | -52.33710 | 36020 ft | 426 kts | 308° |
| 2026-04-10 22:13 | -18.19335 | -52.38366 | 36017 ft | 426 kts | 308° |
| 2026-04-10 22:13 | -18.15383 | -52.43028 | 36016 ft | 427 kts | 308° |
| 2026-04-10 22:14 | -18.11428 | -52.47684 | 36016 ft | 428 kts | 308° |
| 2026-04-10 22:14 | -18.07469 | -52.52349 | 36014 ft | 428 kts | 308° |
| 2026-04-10 22:15 | -18.03496 | -52.57020 | 36015 ft | 428 kts | 308° |
| 2026-04-10 22:15 | -17.99524 | -52.61694 | 36013 ft | 429 kts | 308° |
| 2026-04-10 22:16 | -17.95553 | -52.66372 | 36012 ft | 430 kts | 308° |
| 2026-04-10 22:16 | -17.91570 | -52.71052 | 36015 ft | 430 kts | 308° |
| 2026-04-10 22:17 | -17.87582 | -52.75738 | 36012 ft | 431 kts | 308° |
| 2026-04-10 22:17 | -17.83559 | -52.80454 | 36020 ft | 431 kts | 309° |
| 2026-04-10 22:18 | -17.79552 | -52.85144 | 36019 ft | 431 kts | 309° |
| 2026-04-10 22:18 | -17.75572 | -52.89806 | 36024 ft | 432 kts | 309° |
| 2026-04-10 22:19 | -17.71540 | -52.94527 | 36023 ft | 432 kts | 309° |
| 2026-04-10 22:19 | -17.67524 | -52.99221 | 36024 ft | 432 kts | 309° |
| 2026-04-10 22:20 | -17.63506 | -53.03914 | 36022 ft | 433 kts | 309° |
| 2026-04-10 22:20 | -17.59482 | -53.08606 | 36020 ft | 433 kts | 309° |
| 2026-04-10 22:21 | -17.55459 | -53.13310 | 36020 ft | 433 kts | 309° |
| 2026-04-10 22:21 | -17.51428 | -53.18014 | 36020 ft | 433 kts | 309° |
| 2026-04-10 22:22 | -17.47399 | -53.22716 | 36021 ft | 434 kts | 309° |
| 2026-04-10 22:22 | -17.43372 | -53.27415 | 36021 ft | 434 kts | 309° |
| 2026-04-10 22:23 | -17.39327 | -53.32118 | 36018 ft | 434 kts | 309° |
| 2026-04-10 22:23 | -17.35282 | -53.36821 | 36014 ft | 435 kts | 309° |
| 2026-04-10 22:24 | -17.31231 | -53.41523 | 36010 ft | 435 kts | 309° |
| 2026-04-10 22:24 | -17.27173 | -53.46232 | 36013 ft | 436 kts | 309° |
| 2026-04-10 22:25 | -17.23110 | -53.50940 | 36015 ft | 436 kts | 309° |
| 2026-04-10 22:25 | -17.19025 | -53.55683 | 36016 ft | 436 kts | 309° |
| 2026-04-10 22:26 | -17.14963 | -53.60397 | 36016 ft | 436 kts | 309° |
| 2026-04-10 22:26 | -17.10893 | -53.65111 | 36015 ft | 436 kts | 308° |
| 2026-04-10 22:27 | -17.07619 | -53.70373 | 36014 ft | 432 kts | 296° |
| 2026-04-10 22:27 | -17.04747 | -53.75889 | 36009 ft | 432 kts | 296° |
| 2026-04-10 22:28 | -17.01862 | -53.81407 | 36010 ft | 433 kts | 296° |
| 2026-04-10 22:28 | -16.98975 | -53.86925 | 36008 ft | 433 kts | 296° |
| 2026-04-10 22:29 | -16.96081 | -53.92444 | 36005 ft | 433 kts | 296° |
| 2026-04-10 22:29 | -16.93180 | -53.97961 | 36003 ft | 433 kts | 296° |
| 2026-04-10 22:30 | -16.90288 | -54.03483 | 36003 ft | 433 kts | 296° |
| 2026-04-10 22:30 | -16.87390 | -54.09004 | 36000 ft | 434 kts | 296° |
| 2026-04-10 22:31 | -16.84490 | -54.14529 | 36000 ft | 434 kts | 296° |
| 2026-04-10 22:31 | -16.81589 | -54.20053 | 35994 ft | 434 kts | 296° |
| 2026-04-10 22:32 | -16.78661 | -54.25612 | 35994 ft | 434 kts | 296° |
| 2026-04-10 22:32 | -16.75753 | -54.31135 | 35989 ft | 434 kts | 296° |
| 2026-04-10 22:33 | -16.72852 | -54.36617 | 35986 ft | 434 kts | 297° |
| 2026-04-10 22:33 | -16.69920 | -54.42172 | 35981 ft | 434 kts | 296° |
| 2026-04-10 22:34 | -16.67011 | -54.47699 | 35978 ft | 435 kts | 297° |
| 2026-04-10 22:34 | -16.64093 | -54.53220 | 35982 ft | 435 kts | 297° |
| 2026-04-10 22:35 | -16.61166 | -54.58738 | 35980 ft | 435 kts | 297° |
| 2026-04-10 22:35 | -16.58229 | -54.64266 | 35979 ft | 436 kts | 297° |
| 2026-04-10 22:36 | -16.55350 | -54.69819 | 35981 ft | 435 kts | 296° |
| 2026-04-10 22:36 | -16.53002 | -54.74463 | 35979 ft | 436 kts | 296° |
| 2026-04-10 22:37 | -16.50176 | -54.80041 | 35978 ft | 436 kts | 296° |
| 2026-04-10 22:37 | -16.47298 | -54.85655 | 35464 ft | 437 kts | 296° |
| 2026-04-10 22:37 | -16.45881 | -54.88403 | 34983 ft | 435 kts | 296° |
| 2026-04-10 22:38 | -16.44452 | -54.91175 | 34462 ft | 434 kts | 296° |
| 2026-04-10 22:38 | -16.43028 | -54.93942 | 33945 ft | 433 kts | 296° |
| 2026-04-10 22:38 | -16.41590 | -54.96741 | 33373 ft | 431 kts | 296° |
| 2026-04-10 22:38 | -16.40182 | -54.99481 | 32867 ft | 428 kts | 296° |
| 2026-04-10 22:39 | -16.38782 | -55.02213 | 32345 ft | 426 kts | 296° |
| 2026-04-10 22:39 | -16.37391 | -55.04925 | 31836 ft | 424 kts | 297° |
| 2026-04-10 22:39 | -16.36003 | -55.07629 | 31309 ft | 422 kts | 297° |
| 2026-04-10 22:39 | -16.34621 | -55.10320 | 30807 ft | 421 kts | 297° |
| 2026-04-10 22:40 | -16.33242 | -55.13003 | 30298 ft | 420 kts | 297° |
| 2026-04-10 22:40 | -16.31863 | -55.15684 | 29745 ft | 419 kts | 297° |
| 2026-04-10 22:40 | -16.30490 | -55.18344 | 29238 ft | 416 kts | 297° |
| 2026-04-10 22:40 | -16.29124 | -55.20988 | 28741 ft | 413 kts | 297° |
| 2026-04-10 22:41 | -16.27767 | -55.23613 | 28253 ft | 411 kts | 297° |
| 2026-04-10 22:41 | -16.26417 | -55.26230 | 27770 ft | 409 kts | 297° |
| 2026-04-10 22:41 | -16.25010 | -55.28790 | 27299 ft | 408 kts | 303° |
| 2026-04-10 22:41 | -16.23314 | -55.31144 | 26837 ft | 406 kts | 307° |
| 2026-04-10 22:42 | -16.21586 | -55.33476 | 26381 ft | 405 kts | 307° |
| 2026-04-10 22:42 | -16.19872 | -55.35784 | 25931 ft | 404 kts | 307° |
| 2026-04-10 22:42 | -16.18153 | -55.38094 | 25469 ft | 403 kts | 307° |
| 2026-04-10 22:42 | -16.16437 | -55.40400 | 25027 ft | 403 kts | 307° |
| 2026-04-10 22:43 | -16.14726 | -55.42705 | 24555 ft | 403 kts | 307° |
| 2026-04-10 22:43 | -16.13011 | -55.45018 | 24091 ft | 403 kts | 307° |
| 2026-04-10 22:43 | -16.11304 | -55.47321 | 23598 ft | 403 kts | 307° |
| 2026-04-10 22:43 | -16.09588 | -55.49637 | 23060 ft | 403 kts | 307° |
| 2026-04-10 22:44 | -16.07880 | -55.51939 | 22545 ft | 401 kts | 307° |
| 2026-04-10 22:44 | -16.06184 | -55.54227 | 22054 ft | 399 kts | 307° |
| 2026-04-10 22:44 | -16.04493 | -55.56505 | 21541 ft | 397 kts | 307° |
| 2026-04-10 22:44 | -16.02832 | -55.58737 | 21046 ft | 382 kts | 307° |
| 2026-04-10 22:45 | -16.01214 | -55.60906 | 20546 ft | 369 kts | 307° |
| 2026-04-10 22:45 | -15.99648 | -55.63003 | 20069 ft | 368 kts | 307° |
| 2026-04-10 22:45 | -15.98079 | -55.65107 | 19588 ft | 367 kts | 307° |
| 2026-04-10 22:45 | -15.96521 | -55.67202 | 19109 ft | 366 kts | 307° |
| 2026-04-10 22:46 | -15.94966 | -55.69294 | 18622 ft | 366 kts | 307° |
| 2026-04-10 22:46 | -15.93410 | -55.71387 | 18120 ft | 366 kts | 307° |
| 2026-04-10 22:46 | -15.91857 | -55.73472 | 17599 ft | 364 kts | 307° |
| 2026-04-10 22:46 | -15.90311 | -55.75541 | 17116 ft | 361 kts | 307° |
| 2026-04-10 22:47 | -15.88778 | -55.77592 | 16639 ft | 359 kts | 307° |
| 2026-04-10 22:47 | -15.87249 | -55.79639 | 16164 ft | 357 kts | 307° |
| 2026-04-10 22:47 | -15.85754 | -55.81642 | 15693 ft | 355 kts | 307° |
| 2026-04-10 22:47 | -15.84248 | -55.83662 | 15221 ft | 353 kts | 307° |
| 2026-04-10 22:48 | -15.82748 | -55.85671 | 14751 ft | 351 kts | 307° |
| 2026-04-10 22:48 | -15.81257 | -55.87669 | 14283 ft | 349 kts | 307° |
| 2026-04-10 22:48 | -15.79770 | -55.89660 | 13819 ft | 348 kts | 307° |
| 2026-04-10 22:48 | -15.78288 | -55.91640 | 13313 ft | 346 kts | 307° |
| 2026-04-10 22:49 | -15.76711 | -55.93509 | 12851 ft | 344 kts | 317° |
| 2026-04-10 22:49 | -15.74784 | -55.94953 | 12401 ft | 341 kts | 331° |
| 2026-04-10 22:49 | -15.72682 | -55.96072 | 11942 ft | 338 kts | 333° |
| 2026-04-10 22:49 | -15.70613 | -55.97166 | 11488 ft | 330 kts | 333° |
| 2026-04-10 22:50 | -15.68590 | -55.98242 | 11055 ft | 322 kts | 333° |
| 2026-04-10 22:50 | -15.66616 | -55.99296 | 10624 ft | 316 kts | 333° |
| 2026-04-10 22:50 | -15.64684 | -56.00331 | 10210 ft | 310 kts | 333° |
| 2026-04-10 22:50 | -15.62789 | -56.01345 | 9828 ft | 304 kts | 333° |
| 2026-04-10 22:51 | -15.60929 | -56.02335 | 9648 ft | 299 kts | 333° |
| 2026-04-10 22:51 | -15.59066 | -56.03323 | 9200 ft | 303 kts | 333° |
| 2026-04-10 22:51 | -15.57209 | -56.04310 | 8809 ft | 296 kts | 333° |
| 2026-04-10 22:51 | -15.55376 | -56.05285 | 8108 ft | 295 kts | 333° |
| 2026-04-10 22:52 | -15.53558 | -56.06252 | 7478 ft | 292 kts | 333° |
| 2026-04-10 22:52 | -15.51764 | -56.07206 | 6958 ft | 287 kts | 333° |
| 2026-04-10 22:52 | -15.50002 | -56.08142 | 6442 ft | 283 kts | 333° |
| 2026-04-10 22:52 | -15.48219 | -56.09111 | 5931 ft | 286 kts | 329° |
| 2026-04-10 22:53 | -15.46805 | -56.10505 | 5333 ft | 281 kts | 300° |
| 2026-04-10 22:53 | -15.46245 | -56.12401 | 4756 ft | 277 kts | 271° |
| 2026-04-10 22:53 | -15.46630 | -56.14323 | 4133 ft | 272 kts | 244° |
| 2026-04-10 22:53 | -15.47489 | -56.16053 | 3554 ft | 269 kts | 241° |
| 2026-04-10 22:54 | -15.48416 | -56.17727 | 2978 ft | 264 kts | 228° |
| 2026-04-10 22:54 | -15.49856 | -56.18749 | 2831 ft | 245 kts | 197° |
| 2026-04-10 22:54 | -15.51487 | -56.18861 | 2771 ft | 230 kts | 167° |
| 2026-04-10 22:54 | -15.52920 | -56.18247 | 2702 ft | 218 kts | 153° |
| 2026-04-10 22:55 | -15.54245 | -56.17547 | 2606 ft | 210 kts | 153° |
| 2026-04-10 22:55 | -15.55511 | -56.16870 | 2515 ft | 199 kts | 153° |
| 2026-04-10 22:55 | -15.56669 | -56.16250 | 2421 ft | 176 kts | 153° |
| 2026-04-10 22:55 | -15.57691 | -56.15706 | 2250 ft | 158 kts | 153° |
| 2026-04-10 22:56 | -15.58619 | -56.15214 | 2032 ft | 141 kts | 153° |
| 2026-04-10 22:56 | -15.59464 | -56.14765 | 1825 ft | 133 kts | 153° |
| 2026-04-10 22:56 | -15.60279 | -56.14332 | 1633 ft | 130 kts | 154° |
| 2026-04-10 22:56 | -15.61082 | -56.13903 | 1445 ft | 130 kts | 153° |
| 2026-04-10 22:57 | -15.61894 | -56.13468 | 1250 ft | 132 kts | 153° |
| 2026-04-10 22:57 | -15.62715 | -56.13043 | 1042 ft | 132 kts | 153° |
| 2026-04-10 22:57 | -15.63531 | -56.12609 | 827 ft | 132 kts | 153° |
| 2026-04-10 22:57 | -15.64344 | -56.12174 | 640 ft | 131 kts | 152° |
| 2026-04-10 22:58 | -15.65100 | -56.11772 | 598 ft | 102 kts | 153° |
| 2026-04-10 22:58 | -15.65582 | -56.11517 | 600 ft | 57 kts | 153° |
| 2026-04-10 22:58 | -15.65905 | -56.11345 | 597 ft | 46 kts | 152° |
| 2026-04-10 22:58 | -15.66087 | -56.11248 | 597 ft | 20 kts | 153° |
| 2026-04-10 22:59 | -15.66183 | -56.11198 | 597 ft | 9 kts | 159° |
| 2026-04-10 22:59 | -15.66237 | -56.11223 | 597 ft | 10 kts | 235° |
| 2026-04-10 22:59 | -15.66238 | -56.11292 | 597 ft | 10 kts | 308° |
| 2026-04-10 22:59 | -15.66186 | -56.11325 | 597 ft | 10 kts | 331° |
| 2026-04-10 23:00 | -15.66130 | -56.11354 | 597 ft | 7 kts | 333° |
| 2026-04-10 23:00 | -15.66074 | -56.11384 | 597 ft | 11 kts | 333° |
| 2026-04-10 23:00 | -15.66013 | -56.11417 | 597 ft | 10 kts | 332° |
| 2026-04-10 23:00 | -15.65982 | -56.11433 | 596 ft | 0 kts | 333° |
| 2026-04-10 23:02 | -15.65972 | -56.11439 | 596 ft | 3 kts | 333° |
| 2026-04-10 23:02 | -15.65939 | -56.11456 | 596 ft | 7 kts | 333° |
| 2026-04-10 23:03 | -15.65886 | -56.11484 | 596 ft | 10 kts | 333° |
| 2026-04-10 23:03 | -15.65819 | -56.11520 | 590 ft | 11 kts | 333° |
| 2026-04-10 23:03 | -15.65746 | -56.11558 | 597 ft | 12 kts | 333° |
| 2026-04-10 23:03 | -15.65666 | -56.11600 | 597 ft | 14 kts | 333° |
| 2026-04-10 23:04 | -15.65594 | -56.11639 | 597 ft | 11 kts | 333° |
| 2026-04-10 23:04 | -15.65514 | -56.11681 | 598 ft | 14 kts | 333° |
| 2026-04-10 23:04 | -15.65435 | -56.11723 | 598 ft | 11 kts | 333° |
| 2026-04-10 23:04 | -15.65369 | -56.11758 | 598 ft | 10 kts | 333° |
| 2026-04-10 23:05 | -15.65296 | -56.11797 | 597 ft | 13 kts | 332° |
| 2026-04-10 23:05 | -15.65215 | -56.11836 | 597 ft | 14 kts | 332° |
| 2026-04-10 23:05 | -15.65143 | -56.11879 | 597 ft | 12 kts | 332° |
| 2026-04-10 23:05 | -15.65068 | -56.11920 | 597 ft | 13 kts | 332° |
| 2026-04-10 23:06 | -15.65007 | -56.11952 | 597 ft | 5 kts | 333° |
| 2026-04-10 23:06 | -15.65000 | -56.11988 | 597 ft | 7 kts | 237° |
| 2026-04-10 23:06 | -15.65005 | -56.11997 | 597 ft | 0 kts | 237° |
| 2026-04-10 23:06 | -15.65009 | -56.12003 | 597 ft | 0 kts | 237° |